sensor_id;sensor_type;location;lat;lon;timestamp;P1;durP1;ratioP1;P2;durP2;ratioP2
55931;SDS011;41837;55.700;37.984;2023-02-16T00:00:18;1.40;;;0.75;;
55931;SDS011;41837;55.700;37.984;2023-02-16T00:02:46;3.83;;;0.82;;
55931;SDS011;41837;55.700;37.984;2023-02-16T00:05:30;0.82;;;0.77;;
55931;SDS011;41837;55.700;37.984;2023-02-16T00:07:58;1.50;;;0.95;;
55931;SDS011;41837;55.700;37.984;2023-02-16T00:10:25;1.70;;;0.90;;
55931;SDS011;41837;55.700;37.984;2023-02-16T00:12:55;2.25;;;1.08;;
55931;SDS011;41837;55.700;37.984;2023-02-16T00:15:40;2.65;;;1.10;;
55931;SDS011;41837;55.700;37.984;2023-02-16T00:18:14;2.55;;;1.25;;
55931;SDS011;41837;55.700;37.984;2023-02-16T00:20:43;5.63;;;1.80;;
55931;SDS011;41837;55.700;37.984;2023-02-16T00:23:10;2.08;;;1.13;;
55931;SDS011;41837;55.700;37.984;2023-02-16T00:25:37;3.08;;;1.35;;
55931;SDS011;41837;55.700;37.984;2023-02-16T00:28:03;2.25;;;1.40;;
55931;SDS011;41837;55.700;37.984;2023-02-16T00:30:32;2.00;;;1.23;;
55931;SDS011;41837;55.700;37.984;2023-02-16T00:32:58;3.95;;;1.60;;
55931;SDS011;41837;55.700;37.984;2023-02-16T00:35:26;3.47;;;1.65;;
55931;SDS011;41837;55.700;37.984;2023-02-16T00:37:52;3.35;;;1.50;;
55931;SDS011;41837;55.700;37.984;2023-02-16T00:40:18;3.38;;;1.35;;
55931;SDS011;41837;55.700;37.984;2023-02-16T00:42:45;3.17;;;1.83;;
55931;SDS011;41837;55.700;37.984;2023-02-16T00:45:16;3.88;;;1.80;;
55931;SDS011;41837;55.700;37.984;2023-02-16T00:47:46;5.05;;;1.60;;
55931;SDS011;41837;55.700;37.984;2023-02-16T00:50:19;3.65;;;1.40;;
55931;SDS011;41837;55.700;37.984;2023-02-16T00:52:49;5.55;;;1.70;;
55931;SDS011;41837;55.700;37.984;2023-02-16T00:55:36;3.55;;;1.63;;
55931;SDS011;41837;55.700;37.984;2023-02-16T00:58:23;3.17;;;1.33;;
55931;SDS011;41837;55.700;37.984;2023-02-16T01:01:05;4.07;;;1.30;;
55931;SDS011;41837;55.700;37.984;2023-02-16T01:03:35;3.45;;;1.13;;
55931;SDS011;41837;55.700;37.984;2023-02-16T01:06:03;4.05;;;1.70;;
55931;SDS011;41837;55.700;37.984;2023-02-16T01:08:48;1.30;;;1.20;;
55931;SDS011;41837;55.700;37.984;2023-02-16T01:11:33;2.78;;;1.30;;
55931;SDS011;41837;55.700;37.984;2023-02-16T01:14:00;2.92;;;1.45;;
55931;SDS011;41837;55.700;37.984;2023-02-16T01:16:37;2.35;;;1.30;;
55931;SDS011;41837;55.700;37.984;2023-02-16T01:19:05;2.95;;;1.38;;
55931;SDS011;41837;55.700;37.984;2023-02-16T01:21:32;2.35;;;1.45;;
55931;SDS011;41837;55.700;37.984;2023-02-16T01:24:00;3.95;;;1.60;;
55931;SDS011;41837;55.700;37.984;2023-02-16T01:26:26;3.83;;;1.52;;
55931;SDS011;41837;55.700;37.984;2023-02-16T01:28:52;3.22;;;1.60;;
55931;SDS011;41837;55.700;37.984;2023-02-16T01:31:20;2.22;;;1.30;;
55931;SDS011;41837;55.700;37.984;2023-02-16T01:33:46;3.83;;;1.48;;
55931;SDS011;41837;55.700;37.984;2023-02-16T01:36:21;2.25;;;1.40;;
55931;SDS011;41837;55.700;37.984;2023-02-16T01:38:49;3.85;;;1.38;;
55931;SDS011;41837;55.700;37.984;2023-02-16T01:44:11;1.65;;;1.10;;
55931;SDS011;41837;55.700;37.984;2023-02-16T01:46:50;2.75;;;1.13;;
55931;SDS011;41837;55.700;37.984;2023-02-16T01:49:20;2.92;;;1.42;;
55931;SDS011;41837;55.700;37.984;2023-02-16T01:54:54;4.10;;;1.38;;
55931;SDS011;41837;55.700;37.984;2023-02-16T01:57:45;2.58;;;1.10;;
55931;SDS011;41837;55.700;37.984;2023-02-16T02:00:16;3.72;;;1.20;;
55931;SDS011;41837;55.700;37.984;2023-02-16T02:02:53;3.00;;;1.30;;
55931;SDS011;41837;55.700;37.984;2023-02-16T02:05:47;4.90;;;1.50;;
55931;SDS011;41837;55.700;37.984;2023-02-16T02:08:35;2.10;;;0.98;;
55931;SDS011;41837;55.700;37.984;2023-02-16T02:14:31;2.00;;;1.00;;
55931;SDS011;41837;55.700;37.984;2023-02-16T02:17:06;3.75;;;1.40;;
55931;SDS011;41837;55.700;37.984;2023-02-16T02:19:47;1.95;;;1.17;;
55931;SDS011;41837;55.700;37.984;2023-02-16T02:28:25;3.05;;;1.20;;
55931;SDS011;41837;55.700;37.984;2023-02-16T02:31:26;2.83;;;1.00;;
55931;SDS011;41837;55.700;37.984;2023-02-16T02:44:51;5.60;;;1.40;;
55931;SDS011;41837;55.700;37.984;2023-02-16T02:47:32;4.57;;;1.33;;
55931;SDS011;41837;55.700;37.984;2023-02-16T02:53:36;3.88;;;1.17;;
55931;SDS011;41837;55.700;37.984;2023-02-16T02:56:08;1.95;;;1.33;;
55931;SDS011;41837;55.700;37.984;2023-02-16T02:58:56;3.13;;;1.23;;
55931;SDS011;41837;55.700;37.984;2023-02-16T03:01:47;3.88;;;1.58;;
55931;SDS011;41837;55.700;37.984;2023-02-16T03:04:18;2.58;;;1.35;;
55931;SDS011;41837;55.700;37.984;2023-02-16T03:06:49;2.13;;;1.15;;
55931;SDS011;41837;55.700;37.984;2023-02-16T03:09:18;1.98;;;1.38;;
55931;SDS011;41837;55.700;37.984;2023-02-16T03:11:45;3.05;;;1.30;;
55931;SDS011;41837;55.700;37.984;2023-02-16T03:14:39;2.33;;;1.25;;
55931;SDS011;41837;55.700;37.984;2023-02-16T03:17:27;3.63;;;1.40;;
55931;SDS011;41837;55.700;37.984;2023-02-16T03:20:20;3.35;;;1.48;;
55931;SDS011;41837;55.700;37.984;2023-02-16T03:23:05;3.88;;;1.58;;
55931;SDS011;41837;55.700;37.984;2023-02-16T03:25:52;3.55;;;1.50;;
55931;SDS011;41837;55.700;37.984;2023-02-16T03:28:38;4.55;;;1.58;;
55931;SDS011;41837;55.700;37.984;2023-02-16T03:31:31;3.00;;;1.48;;
55931;SDS011;41837;55.700;37.984;2023-02-16T03:34:00;3.42;;;1.70;;
55931;SDS011;41837;55.700;37.984;2023-02-16T03:36:27;4.88;;;2.20;;
55931;SDS011;41837;55.700;37.984;2023-02-16T03:38:56;5.60;;;2.13;;
55931;SDS011;41837;55.700;37.984;2023-02-16T03:41:24;5.75;;;1.98;;
55931;SDS011;41837;55.700;37.984;2023-02-16T03:43:51;3.38;;;1.90;;
55931;SDS011;41837;55.700;37.984;2023-02-16T03:46:17;3.30;;;1.95;;
55931;SDS011;41837;55.700;37.984;2023-02-16T03:48:44;4.50;;;1.95;;
55931;SDS011;41837;55.700;37.984;2023-02-16T03:51:10;5.55;;;2.10;;
55931;SDS011;41837;55.700;37.984;2023-02-16T03:53:36;6.97;;;2.13;;
55931;SDS011;41837;55.700;37.984;2023-02-16T03:56:02;5.60;;;2.42;;
55931;SDS011;41837;55.700;37.984;2023-02-16T03:58:28;6.45;;;2.30;;
55931;SDS011;41837;55.700;37.984;2023-02-16T04:00:54;4.40;;;2.00;;
55931;SDS011;41837;55.700;37.984;2023-02-16T04:03:21;2.67;;;1.83;;
55931;SDS011;41837;55.700;37.984;2023-02-16T04:05:47;3.33;;;1.95;;
55931;SDS011;41837;55.700;37.984;2023-02-16T04:08:13;3.00;;;1.95;;
55931;SDS011;41837;55.700;37.984;2023-02-16T04:10:39;2.75;;;1.83;;
55931;SDS011;41837;55.700;37.984;2023-02-16T04:13:05;4.13;;;1.98;;
55931;SDS011;41837;55.700;37.984;2023-02-16T04:15:32;4.15;;;1.92;;
55931;SDS011;41837;55.700;37.984;2023-02-16T04:17:59;3.20;;;2.00;;
55931;SDS011;41837;55.700;37.984;2023-02-16T04:20:27;5.38;;;2.40;;
55931;SDS011;41837;55.700;37.984;2023-02-16T04:22:56;6.53;;;2.50;;
55931;SDS011;41837;55.700;37.984;2023-02-16T04:25:22;6.25;;;1.90;;
55931;SDS011;41837;55.700;37.984;2023-02-16T04:27:48;10.88;;;4.03;;
55931;SDS011;41837;55.700;37.984;2023-02-16T04:30:20;16.38;;;3.70;;
55931;SDS011;41837;55.700;37.984;2023-02-16T04:32:48;9.55;;;2.38;;
55931;SDS011;41837;55.700;37.984;2023-02-16T04:35:14;3.83;;;2.13;;
55931;SDS011;41837;55.700;37.984;2023-02-16T04:37:41;4.72;;;1.98;;
55931;SDS011;41837;55.700;37.984;2023-02-16T04:40:07;6.95;;;2.58;;
55931;SDS011;41837;55.700;37.984;2023-02-16T04:42:39;5.45;;;1.95;;
55931;SDS011;41837;55.700;37.984;2023-02-16T04:45:05;4.43;;;2.28;;
55931;SDS011;41837;55.700;37.984;2023-02-16T04:47:32;8.90;;;3.10;;
55931;SDS011;41837;55.700;37.984;2023-02-16T04:49:58;5.72;;;2.22;;
55931;SDS011;41837;55.700;37.984;2023-02-16T04:52:25;4.60;;;1.55;;
55931;SDS011;41837;55.700;37.984;2023-02-16T04:54:51;4.75;;;2.00;;
55931;SDS011;41837;55.700;37.984;2023-02-16T04:57:17;6.38;;;2.55;;
55931;SDS011;41837;55.700;37.984;2023-02-16T04:59:45;5.18;;;2.40;;
55931;SDS011;41837;55.700;37.984;2023-02-16T05:02:11;8.02;;;2.47;;
55931;SDS011;41837;55.700;37.984;2023-02-16T05:04:38;4.72;;;2.10;;
55931;SDS011;41837;55.700;37.984;2023-02-16T05:07:04;9.23;;;3.67;;
55931;SDS011;41837;55.700;37.984;2023-02-16T05:09:30;5.10;;;2.30;;
55931;SDS011;41837;55.700;37.984;2023-02-16T05:11:56;8.82;;;3.00;;
55931;SDS011;41837;55.700;37.984;2023-02-16T05:14:41;5.88;;;2.45;;
55931;SDS011;41837;55.700;37.984;2023-02-16T05:17:08;5.18;;;2.70;;
55931;SDS011;41837;55.700;37.984;2023-02-16T05:19:50;6.43;;;2.40;;
55931;SDS011;41837;55.700;37.984;2023-02-16T05:22:20;3.40;;;1.88;;
55931;SDS011;41837;55.700;37.984;2023-02-16T05:24:46;5.25;;;2.22;;
55931;SDS011;41837;55.700;37.984;2023-02-16T05:27:15;6.93;;;2.63;;
55931;SDS011;41837;55.700;37.984;2023-02-16T05:29:43;3.72;;;1.90;;
55931;SDS011;41837;55.700;37.984;2023-02-16T05:32:09;9.77;;;2.60;;
55931;SDS011;41837;55.700;37.984;2023-02-16T05:34:36;4.30;;;1.95;;
55931;SDS011;41837;55.700;37.984;2023-02-16T05:37:03;3.80;;;1.63;;
55931;SDS011;41837;55.700;37.984;2023-02-16T05:39:29;3.58;;;1.98;;
55931;SDS011;41837;55.700;37.984;2023-02-16T05:41:55;2.97;;;1.63;;
55931;SDS011;41837;55.700;37.984;2023-02-16T05:44:22;3.78;;;2.40;;
55931;SDS011;41837;55.700;37.984;2023-02-16T05:46:48;5.70;;;1.75;;
55931;SDS011;41837;55.700;37.984;2023-02-16T05:49:15;4.30;;;2.03;;
55931;SDS011;41837;55.700;37.984;2023-02-16T05:51:43;5.45;;;2.20;;
55931;SDS011;41837;55.700;37.984;2023-02-16T05:54:09;5.10;;;2.40;;
55931;SDS011;41837;55.700;37.984;2023-02-16T05:56:42;2.63;;;1.45;;
55931;SDS011;41837;55.700;37.984;2023-02-16T05:59:12;1.92;;;1.33;;
55931;SDS011;41837;55.700;37.984;2023-02-16T06:01:39;5.95;;;2.60;;
55931;SDS011;41837;55.700;37.984;2023-02-16T06:04:06;4.13;;;1.90;;
55931;SDS011;41837;55.700;37.984;2023-02-16T06:06:33;3.55;;;1.63;;
55931;SDS011;41837;55.700;37.984;2023-02-16T06:09:00;3.05;;;1.45;;
55931;SDS011;41837;55.700;37.984;2023-02-16T06:11:26;3.78;;;1.85;;
55931;SDS011;41837;55.700;37.984;2023-02-16T06:14:06;2.55;;;1.35;;
55931;SDS011;41837;55.700;37.984;2023-02-16T06:16:38;3.13;;;1.20;;
55931;SDS011;41837;55.700;37.984;2023-02-16T06:19:05;2.67;;;1.10;;
55931;SDS011;41837;55.700;37.984;2023-02-16T06:21:33;3.47;;;1.33;;
55931;SDS011;41837;55.700;37.984;2023-02-16T06:24:00;1.83;;;1.00;;
55931;SDS011;41837;55.700;37.984;2023-02-16T06:26:26;2.75;;;0.95;;
55931;SDS011;41837;55.700;37.984;2023-02-16T06:28:53;5.25;;;1.85;;
55931;SDS011;41837;55.700;37.984;2023-02-16T06:31:20;2.40;;;1.50;;
55931;SDS011;41837;55.700;37.984;2023-02-16T06:33:46;3.28;;;1.52;;
55931;SDS011;41837;55.700;37.984;2023-02-16T06:36:13;3.60;;;1.80;;
55931;SDS011;41837;55.700;37.984;2023-02-16T06:38:39;2.50;;;1.60;;
55931;SDS011;41837;55.700;37.984;2023-02-16T06:41:06;3.25;;;1.60;;
55931;SDS011;41837;55.700;37.984;2023-02-16T06:43:33;3.35;;;1.60;;
55931;SDS011;41837;55.700;37.984;2023-02-16T06:45:59;3.10;;;1.55;;
55931;SDS011;41837;55.700;37.984;2023-02-16T06:48:25;2.90;;;1.42;;
55931;SDS011;41837;55.700;37.984;2023-02-16T06:50:52;3.65;;;1.80;;
55931;SDS011;41837;55.700;37.984;2023-02-16T06:53:18;3.40;;;1.70;;
55931;SDS011;41837;55.700;37.984;2023-02-16T06:55:48;3.58;;;1.70;;
55931;SDS011;41837;55.700;37.984;2023-02-16T06:58:16;3.08;;;1.52;;
55931;SDS011;41837;55.700;37.984;2023-02-16T07:00:42;5.78;;;2.05;;
55931;SDS011;41837;55.700;37.984;2023-02-16T07:03:08;3.95;;;2.03;;
55931;SDS011;41837;55.700;37.984;2023-02-16T07:05:34;5.22;;;2.00;;
55931;SDS011;41837;55.700;37.984;2023-02-16T07:08:00;6.13;;;2.40;;
55931;SDS011;41837;55.700;37.984;2023-02-16T07:10:26;1.30;;;1.02;;
55931;SDS011;41837;55.700;37.984;2023-02-16T07:12:53;6.22;;;1.98;;
55931;SDS011;41837;55.700;37.984;2023-02-16T07:15:18;3.22;;;1.58;;
55931;SDS011;41837;55.700;37.984;2023-02-16T07:17:45;3.42;;;1.85;;
55931;SDS011;41837;55.700;37.984;2023-02-16T07:20:11;7.93;;;1.55;;
55931;SDS011;41837;55.700;37.984;2023-02-16T07:22:37;1.60;;;1.00;;
55931;SDS011;41837;55.700;37.984;2023-02-16T07:25:03;3.83;;;1.67;;
55931;SDS011;41837;55.700;37.984;2023-02-16T07:27:29;2.50;;;1.30;;
55931;SDS011;41837;55.700;37.984;2023-02-16T07:29:55;2.40;;;1.40;;
55931;SDS011;41837;55.700;37.984;2023-02-16T07:32:22;3.70;;;1.48;;
55931;SDS011;41837;55.700;37.984;2023-02-16T07:34:48;1.95;;;0.82;;
55931;SDS011;41837;55.700;37.984;2023-02-16T07:37:16;1.42;;;0.90;;
55931;SDS011;41837;55.700;37.984;2023-02-16T07:39:42;3.13;;;1.15;;
55931;SDS011;41837;55.700;37.984;2023-02-16T07:42:08;3.90;;;1.40;;
55931;SDS011;41837;55.700;37.984;2023-02-16T07:44:34;3.97;;;0.73;;
55931;SDS011;41837;55.700;37.984;2023-02-16T07:47:02;5.60;;;1.40;;
55931;SDS011;41837;55.700;37.984;2023-02-16T07:49:28;1.65;;;1.08;;
55931;SDS011;41837;55.700;37.984;2023-02-16T07:51:54;2.97;;;1.30;;
55931;SDS011;41837;55.700;37.984;2023-02-16T07:54:21;2.25;;;1.25;;
55931;SDS011;41837;55.700;37.984;2023-02-16T07:56:46;2.10;;;1.30;;
55931;SDS011;41837;55.700;37.984;2023-02-16T07:59:13;3.05;;;1.42;;
55931;SDS011;41837;55.700;37.984;2023-02-16T08:01:41;2.90;;;1.55;;
55931;SDS011;41837;55.700;37.984;2023-02-16T08:04:07;1.75;;;1.13;;
55931;SDS011;41837;55.700;37.984;2023-02-16T08:06:33;2.28;;;1.40;;
55931;SDS011;41837;55.700;37.984;2023-02-16T08:09:00;1.80;;;1.17;;
55931;SDS011;41837;55.700;37.984;2023-02-16T08:11:26;2.33;;;1.48;;
55931;SDS011;41837;55.700;37.984;2023-02-16T08:13:52;3.42;;;1.70;;
55931;SDS011;41837;55.700;37.984;2023-02-16T08:16:19;2.95;;;1.60;;
55931;SDS011;41837;55.700;37.984;2023-02-16T08:18:49;4.30;;;2.17;;
55931;SDS011;41837;55.700;37.984;2023-02-16T08:21:17;3.92;;;2.08;;
55931;SDS011;41837;55.700;37.984;2023-02-16T08:23:47;3.50;;;1.75;;
55931;SDS011;41837;55.700;37.984;2023-02-16T08:26:34;3.13;;;1.80;;
55931;SDS011;41837;55.700;37.984;2023-02-16T08:29:04;3.33;;;1.70;;
55931;SDS011;41837;55.700;37.984;2023-02-16T08:31:32;6.25;;;1.77;;
55931;SDS011;41837;55.700;37.984;2023-02-16T08:34:00;3.78;;;1.70;;
55931;SDS011;41837;55.700;37.984;2023-02-16T08:36:28;4.03;;;1.55;;
55931;SDS011;41837;55.700;37.984;2023-02-16T08:38:57;3.05;;;1.65;;
55931;SDS011;41837;55.700;37.984;2023-02-16T08:41:27;2.47;;;1.35;;
55931;SDS011;41837;55.700;37.984;2023-02-16T08:43:55;2.25;;;1.10;;
55931;SDS011;41837;55.700;37.984;2023-02-16T08:46:22;5.25;;;1.50;;
55931;SDS011;41837;55.700;37.984;2023-02-16T08:48:49;4.30;;;2.00;;
55931;SDS011;41837;55.700;37.984;2023-02-16T08:51:16;3.05;;;1.60;;
55931;SDS011;41837;55.700;37.984;2023-02-16T08:53:44;2.67;;;1.30;;
55931;SDS011;41837;55.700;37.984;2023-02-16T08:56:11;2.28;;;1.27;;
55931;SDS011;41837;55.700;37.984;2023-02-16T08:58:38;2.35;;;1.52;;
55931;SDS011;41837;55.700;37.984;2023-02-16T09:01:05;5.50;;;1.65;;
55931;SDS011;41837;55.700;37.984;2023-02-16T09:03:35;3.45;;;1.83;;
55931;SDS011;41837;55.700;37.984;2023-02-16T09:06:04;2.25;;;1.42;;
55931;SDS011;41837;55.700;37.984;2023-02-16T09:08:30;1.55;;;1.10;;
55931;SDS011;41837;55.700;37.984;2023-02-16T09:11:02;2.00;;;0.98;;
55931;SDS011;41837;55.700;37.984;2023-02-16T09:13:34;3.47;;;1.70;;
55931;SDS011;41837;55.700;37.984;2023-02-16T09:16:06;2.42;;;1.00;;
55931;SDS011;41837;55.700;37.984;2023-02-16T09:18:34;3.30;;;1.08;;
55931;SDS011;41837;55.700;37.984;2023-02-16T09:21:04;3.20;;;1.80;;
55931;SDS011;41837;55.700;37.984;2023-02-16T09:23:35;3.63;;;1.60;;
55931;SDS011;41837;55.700;37.984;2023-02-16T09:26:06;4.68;;;1.85;;
55931;SDS011;41837;55.700;37.984;2023-02-16T09:28:34;3.17;;;1.48;;
55931;SDS011;41837;55.700;37.984;2023-02-16T09:31:15;4.53;;;2.20;;
55931;SDS011;41837;55.700;37.984;2023-02-16T09:33:50;3.85;;;1.98;;
55931;SDS011;41837;55.700;37.984;2023-02-16T09:36:21;4.13;;;2.17;;
55931;SDS011;41837;55.700;37.984;2023-02-16T09:38:47;3.80;;;2.15;;
55931;SDS011;41837;55.700;37.984;2023-02-16T09:46:20;3.28;;;1.50;;
55931;SDS011;41837;55.700;37.984;2023-02-16T09:48:49;3.70;;;2.00;;
55931;SDS011;41837;55.700;37.984;2023-02-16T09:51:24;4.93;;;2.10;;
55931;SDS011;41837;55.700;37.984;2023-02-16T09:53:58;4.95;;;2.03;;
55931;SDS011;41837;55.700;37.984;2023-02-16T09:56:35;3.67;;;1.70;;
55931;SDS011;41837;55.700;37.984;2023-02-16T10:04:17;3.47;;;1.75;;
55931;SDS011;41837;55.700;37.984;2023-02-16T10:10:02;4.68;;;1.92;;
55931;SDS011;41837;55.700;37.984;2023-02-16T10:12:35;3.58;;;1.45;;
55931;SDS011;41837;55.700;37.984;2023-02-16T10:15:13;3.67;;;1.92;;
55931;SDS011;41837;55.700;37.984;2023-02-16T10:17:45;3.53;;;1.83;;
55931;SDS011;41837;55.700;37.984;2023-02-16T10:20:27;2.88;;;1.58;;
55931;SDS011;41837;55.700;37.984;2023-02-16T10:26:00;3.55;;;2.10;;
55931;SDS011;41837;55.700;37.984;2023-02-16T10:28:52;4.60;;;2.10;;
55931;SDS011;41837;55.700;37.984;2023-02-16T10:34:17;3.08;;;1.98;;
55931;SDS011;41837;55.700;37.984;2023-02-16T10:47:47;3.40;;;1.95;;
55931;SDS011;41837;55.700;37.984;2023-02-16T10:50:26;4.65;;;2.10;;
55931;SDS011;41837;55.700;37.984;2023-02-16T10:52:55;3.05;;;1.58;;
55931;SDS011;41837;55.700;37.984;2023-02-16T10:55:25;4.97;;;2.38;;
55931;SDS011;41837;55.700;37.984;2023-02-16T10:57:52;2.70;;;2.00;;
55931;SDS011;41837;55.700;37.984;2023-02-16T11:00:23;4.53;;;2.22;;
55931;SDS011;41837;55.700;37.984;2023-02-16T11:03:05;3.53;;;1.80;;
55931;SDS011;41837;55.700;37.984;2023-02-16T11:05:37;4.43;;;1.90;;
55931;SDS011;41837;55.700;37.984;2023-02-16T11:08:06;3.45;;;1.52;;
55931;SDS011;41837;55.700;37.984;2023-02-16T11:10:54;3.42;;;1.83;;
55931;SDS011;41837;55.700;37.984;2023-02-16T11:13:34;4.90;;;2.10;;
55931;SDS011;41837;55.700;37.984;2023-02-16T11:19:06;4.55;;;2.30;;
55931;SDS011;41837;55.700;37.984;2023-02-16T11:21:51;6.32;;;2.22;;
55931;SDS011;41837;55.700;37.984;2023-02-16T11:24:29;4.60;;;1.90;;
55931;SDS011;41837;55.700;37.984;2023-02-16T11:27:04;5.65;;;3.05;;
55931;SDS011;41837;55.700;37.984;2023-02-16T11:29:42;5.63;;;2.53;;
55931;SDS011;41837;55.700;37.984;2023-02-16T11:32:09;4.85;;;2.70;;
55931;SDS011;41837;55.700;37.984;2023-02-16T11:34:44;4.93;;;2.55;;
55931;SDS011;41837;55.700;37.984;2023-02-16T11:39:54;5.85;;;2.70;;
55931;SDS011;41837;55.700;37.984;2023-02-16T11:42:34;5.65;;;3.17;;
55931;SDS011;41837;55.700;37.984;2023-02-16T11:45:28;5.90;;;2.75;;
55931;SDS011;41837;55.700;37.984;2023-02-16T11:47:58;5.13;;;3.03;;
55931;SDS011;41837;55.700;37.984;2023-02-16T11:50:29;4.13;;;2.38;;
55931;SDS011;41837;55.700;37.984;2023-02-16T11:55:38;4.80;;;2.40;;
55931;SDS011;41837;55.700;37.984;2023-02-16T12:17:59;6.28;;;3.25;;
55931;SDS011;41837;55.700;37.984;2023-02-16T12:26:01;4.25;;;2.55;;
55931;SDS011;41837;55.700;37.984;2023-02-16T12:32:06;5.80;;;3.08;;
55931;SDS011;41837;55.700;37.984;2023-02-16T12:40:35;9.17;;;3.07;;
55931;SDS011;41837;55.700;37.984;2023-02-16T12:46:16;5.90;;;3.53;;
55931;SDS011;41837;55.700;37.984;2023-02-16T12:52:09;6.95;;;4.13;;
55931;SDS011;41837;55.700;37.984;2023-02-16T12:54:48;7.57;;;4.20;;
55931;SDS011;41837;55.700;37.984;2023-02-16T12:57:20;8.93;;;5.18;;
55931;SDS011;41837;55.700;37.984;2023-02-16T12:59:52;9.15;;;4.80;;
55931;SDS011;41837;55.700;37.984;2023-02-16T13:02:30;8.70;;;4.65;;
55931;SDS011;41837;55.700;37.984;2023-02-16T13:07:41;11.00;;;5.38;;
55931;SDS011;41837;55.700;37.984;2023-02-16T13:10:14;9.30;;;5.30;;
55931;SDS011;41837;55.700;37.984;2023-02-16T13:12:56;9.23;;;5.00;;
55931;SDS011;41837;55.700;37.984;2023-02-16T13:15:38;10.90;;;5.13;;
55931;SDS011;41837;55.700;37.984;2023-02-16T13:21:02;9.45;;;4.82;;
55931;SDS011;41837;55.700;37.984;2023-02-16T13:23:40;12.10;;;5.38;;
55931;SDS011;41837;55.700;37.984;2023-02-16T13:34:45;11.02;;;4.13;;
55931;SDS011;41837;55.700;37.984;2023-02-16T13:43:20;9.15;;;5.25;;
55931;SDS011;41837;55.700;37.984;2023-02-16T13:45:56;9.45;;;5.40;;
55931;SDS011;41837;55.700;37.984;2023-02-16T13:48:29;8.82;;;4.88;;
55931;SDS011;41837;55.700;37.984;2023-02-16T13:51:04;10.05;;;5.22;;
55931;SDS011;41837;55.700;37.984;2023-02-16T13:53:36;11.35;;;5.47;;
55931;SDS011;41837;55.700;37.984;2023-02-16T13:58:49;9.20;;;5.10;;
55931;SDS011;41837;55.700;37.984;2023-02-16T14:04:11;9.80;;;4.95;;
55931;SDS011;41837;55.700;37.984;2023-02-16T14:06:47;8.13;;;4.53;;
55931;SDS011;41837;55.700;37.984;2023-02-16T14:22:26;9.43;;;5.15;;
55931;SDS011;41837;55.700;37.984;2023-02-16T14:35:37;10.65;;;5.68;;
55931;SDS011;41837;55.700;37.984;2023-02-16T14:38:06;13.82;;;6.60;;
55931;SDS011;41837;55.700;37.984;2023-02-16T14:41:05;13.77;;;7.00;;
55931;SDS011;41837;55.700;37.984;2023-02-16T14:43:42;15.07;;;6.45;;
55931;SDS011;41837;55.700;37.984;2023-02-16T14:55:19;21.58;;;9.23;;
55931;SDS011;41837;55.700;37.984;2023-02-16T14:58:18;18.65;;;8.43;;
55931;SDS011;41837;55.700;37.984;2023-02-16T15:00:55;17.38;;;8.38;;
55931;SDS011;41837;55.700;37.984;2023-02-16T15:03:36;17.48;;;8.07;;
55931;SDS011;41837;55.700;37.984;2023-02-16T15:06:13;18.83;;;7.97;;
55931;SDS011;41837;55.700;37.984;2023-02-16T15:08:52;21.55;;;8.48;;
55931;SDS011;41837;55.700;37.984;2023-02-16T15:11:34;30.52;;;13.25;;
55931;SDS011;41837;55.700;37.984;2023-02-16T15:14:22;45.47;;;20.15;;
55931;SDS011;41837;55.700;37.984;2023-02-16T15:16:52;71.05;;;31.05;;
55931;SDS011;41837;55.700;37.984;2023-02-16T15:19:25;53.45;;;23.58;;
55931;SDS011;41837;55.700;37.984;2023-02-16T15:22:09;50.83;;;24.02;;
55931;SDS011;41837;55.700;37.984;2023-02-16T15:24:35;39.75;;;17.60;;
55931;SDS011;41837;55.700;37.984;2023-02-16T15:27:02;39.58;;;17.15;;
55931;SDS011;41837;55.700;37.984;2023-02-16T15:29:28;40.50;;;18.10;;
55931;SDS011;41837;55.700;37.984;2023-02-16T15:31:55;42.65;;;18.20;;
55931;SDS011;41837;55.700;37.984;2023-02-16T15:34:41;33.05;;;15.25;;
55931;SDS011;41837;55.700;37.984;2023-02-16T15:37:29;36.35;;;15.27;;
55931;SDS011;41837;55.700;37.984;2023-02-16T15:40:12;35.90;;;14.63;;
55931;SDS011;41837;55.700;37.984;2023-02-16T15:42:41;24.08;;;11.98;;
55931;SDS011;41837;55.700;37.984;2023-02-16T15:45:22;29.15;;;11.38;;
55931;SDS011;41837;55.700;37.984;2023-02-16T15:50:41;23.50;;;11.18;;
55931;SDS011;41837;55.700;37.984;2023-02-16T15:53:10;23.58;;;11.32;;
55931;SDS011;41837;55.700;37.984;2023-02-16T15:55:44;18.38;;;8.48;;
55931;SDS011;41837;55.700;37.984;2023-02-16T15:58:12;21.92;;;10.18;;
55931;SDS011;41837;55.700;37.984;2023-02-16T16:00:40;20.98;;;9.18;;
55931;SDS011;41837;55.700;37.984;2023-02-16T16:03:13;22.10;;;9.20;;
55931;SDS011;41837;55.700;37.984;2023-02-16T16:05:42;22.58;;;10.15;;
55931;SDS011;41837;55.700;37.984;2023-02-16T16:08:24;23.60;;;10.68;;
55931;SDS011;41837;55.700;37.984;2023-02-16T16:10:53;19.80;;;8.05;;
55931;SDS011;41837;55.700;37.984;2023-02-16T16:13:22;17.45;;;7.35;;
55931;SDS011;41837;55.700;37.984;2023-02-16T16:15:51;21.55;;;9.80;;
55931;SDS011;41837;55.700;37.984;2023-02-16T16:21:02;22.17;;;10.40;;
55931;SDS011;41837;55.700;37.984;2023-02-16T16:23:35;21.50;;;10.02;;
55931;SDS011;41837;55.700;37.984;2023-02-16T16:26:14;24.17;;;9.65;;
55931;SDS011;41837;55.700;37.984;2023-02-16T16:28:41;23.77;;;10.30;;
55931;SDS011;41837;55.700;37.984;2023-02-16T16:31:09;24.55;;;11.05;;
55931;SDS011;41837;55.700;37.984;2023-02-16T16:41:44;22.73;;;10.50;;
55931;SDS011;41837;55.700;37.984;2023-02-16T16:44:31;25.67;;;10.75;;
55931;SDS011;41837;55.700;37.984;2023-02-16T16:49:44;20.67;;;8.70;;
55931;SDS011;41837;55.700;37.984;2023-02-16T16:52:27;20.63;;;9.00;;
55931;SDS011;41837;55.700;37.984;2023-02-16T16:55:21;21.80;;;9.07;;
55931;SDS011;41837;55.700;37.984;2023-02-16T16:57:58;22.60;;;9.20;;
55931;SDS011;41837;55.700;37.984;2023-02-16T17:00:26;24.15;;;9.85;;
55931;SDS011;41837;55.700;37.984;2023-02-16T17:03:02;20.67;;;9.23;;
55931;SDS011;41837;55.700;37.984;2023-02-16T17:05:30;21.73;;;8.90;;
55931;SDS011;41837;55.700;37.984;2023-02-16T17:07:56;23.77;;;9.25;;
55931;SDS011;41837;55.700;37.984;2023-02-16T17:10:22;29.85;;;10.15;;
55931;SDS011;41837;55.700;37.984;2023-02-16T17:12:52;21.25;;;10.45;;
55931;SDS011;41837;55.700;37.984;2023-02-16T17:17:59;21.08;;;9.18;;
55931;SDS011;41837;55.700;37.984;2023-02-16T17:20:26;23.75;;;9.55;;
55931;SDS011;41837;55.700;37.984;2023-02-16T17:22:52;19.70;;;9.18;;
55931;SDS011;41837;55.700;37.984;2023-02-16T17:25:18;20.35;;;9.02;;
55931;SDS011;41837;55.700;37.984;2023-02-16T17:27:44;24.25;;;11.23;;
55931;SDS011;41837;55.700;37.984;2023-02-16T17:30:14;55.78;;;20.90;;
55931;SDS011;41837;55.700;37.984;2023-02-16T17:32:40;47.42;;;18.83;;
55931;SDS011;41837;55.700;37.984;2023-02-16T17:35:06;48.03;;;21.58;;
55931;SDS011;41837;55.700;37.984;2023-02-16T17:37:34;38.55;;;14.52;;
55931;SDS011;41837;55.700;37.984;2023-02-16T17:40:01;38.45;;;16.25;;
55931;SDS011;41837;55.700;37.984;2023-02-16T17:42:28;32.65;;;13.90;;
55931;SDS011;41837;55.700;37.984;2023-02-16T17:44:54;28.25;;;13.50;;
55931;SDS011;41837;55.700;37.984;2023-02-16T17:47:21;32.70;;;14.10;;
55931;SDS011;41837;55.700;37.984;2023-02-16T17:49:47;27.83;;;11.27;;
55931;SDS011;41837;55.700;37.984;2023-02-16T17:52:15;26.75;;;11.55;;
55931;SDS011;41837;55.700;37.984;2023-02-16T17:54:41;26.73;;;12.13;;
55931;SDS011;41837;55.700;37.984;2023-02-16T17:57:08;23.83;;;11.50;;
55931;SDS011;41837;55.700;37.984;2023-02-16T17:59:34;23.27;;;10.27;;
55931;SDS011;41837;55.700;37.984;2023-02-16T18:02:01;23.30;;;9.77;;